Time;durP1;ratioP1;P1;durP2;ratioP2;P2;SDS_P1;SDS_P2;PMS_P1;PMS_P2;Temp;Humidity;BMP_temperature;BMP_pressure;BME280_temperature;BME280_humidity;BME280_pressure;Samples;Min_cycle;Max_cycle;Signal;HPM_P1;HPM_P2
2023/08/31 00:01:30;;;;;;;;;;;;;;;22.08;100.00;98854.06;5013781;28;864;-57
2023/08/31 00:03:57;;;;;;;;;;;;;;;22.06;100.00;98855.84;5013857;28;827;-57
2023/08/31 00:06:24;;;;;;;;;;;;;;;22.00;100.00;98861.47;5013649;28;1939;-57
2023/08/31 00:08:50;;;;;;;;;;;;;;;21.94;100.00;98855.81;5013759;28;824;-57
2023/08/31 00:11:17;;;;;;;;;;;;;;;21.91;100.00;98861.66;5013957;28;876;-57
2023/08/31 00:13:43;;;;;;;;;;;;;;;21.89;100.00;98873.44;5013612;28;845;-57
2023/08/31 00:16:12;;;;;;;;;;;;;;;21.93;100.00;98876.75;5013710;28;831;-57
2023/08/31 00:18:40;;;;;;;;;;;;;;;21.93;100.00;98870.38;5013597;28;864;-57
2023/08/31 00:21:08;;;;;;;;;;;;;;;21.94;100.00;98869.13;5013595;28;852;-57
2023/08/31 00:23:37;;;;;;;;;;;;;;;21.97;100.00;98876.53;5013698;28;934;-57
2023/08/31 00:26:03;;;;;;;;;;;;;;;21.98;100.00;98876.03;5013375;28;1890;-57
2023/08/31 00:28:30;;;;;;;;;;;;;;;21.98;100.00;98878.09;5013361;28;893;-59
2023/08/31 00:30:57;;;;;;;;;;;;;;;22.03;100.00;98886.53;5013579;28;837;-57
2023/08/31 00:33:25;;;;;;;;;;;;;;;22.05;100.00;98888.84;5013279;28;923;-57
2023/08/31 00:35:54;;;;;;;;;;;;;;;22.06;100.00;98892.44;5013203;28;832;-58
2023/08/31 00:38:21;;;;;;;;;;;;;;;22.00;100.00;98900.84;5011910;28;1209;-57
2023/08/31 00:40:48;;;;;;;;;;;;;;;21.86;100.00;98898.97;5013133;28;913;-57
2023/08/31 00:43:18;;;;;;;;;;;;;;;21.78;100.00;98899.44;5013233;28;1142;-57
2023/08/31 00:45:48;;;;;;;;;;;;;;;21.67;100.00;98899.38;5013084;28;1965;-57
2023/08/31 00:48:18;;;;;;;;;;;;;;;21.58;100.00;98897.53;5012923;28;931;-57
2023/08/31 00:50:45;;;;;;;;;;;;;;;21.51;100.00;98897.22;5012943;28;832;-57
2023/08/31 00:53:13;;;;;;;;;;;;;;;21.44;100.00;98898.44;5012844;28;903;-57
2023/08/31 00:55:42;;;;;;;;;;;;;;;21.40;100.00;98900.66;5012936;28;923;-57
2023/08/31 00:58:09;;;;;;;;;;;;;;;21.37;100.00;98905.25;5011513;28;1248;-57
2023/08/31 01:00:48;;;;;;;;;;;;;;;21.39;100.00;98911.13;5012772;28;869;-57
2023/08/31 01:03:28;;;;;;;;;;;;;;;21.46;100.00;98918.38;5012800;28;876;-57
2023/08/31 01:06:10;;;;;;;;;;;;;;;21.46;100.00;98924.00;5012672;28;1893;-57
2023/08/31 01:08:49;;;;;;;;;;;;;;;21.46;100.00;98923.22;5012625;28;963;-57
2023/08/31 01:11:21;;;;;;;;;;;;;;;21.47;100.00;98927.59;5012636;28;867;-58
2023/08/31 01:13:51;;;;;;;;;;;;;;;21.47;100.00;98931.19;5012579;28;876;-57
2023/08/31 01:16:19;;;;;;;;;;;;;;;21.36;100.00;98931.81;5012604;28;864;-57
2023/08/31 01:18:46;;;;;;;;;;;;;;;21.19;100.00;98928.09;5012520;28;856;-57
2023/08/31 01:21:27;;;;;;;;;;;;;;;21.08;100.00;98931.56;5012442;28;842;-57
2023/08/31 01:23:55;;;;;;;;;;;;;;;20.98;100.00;98944.25;5012393;28;911;-57
2023/08/31 01:26:22;;;;;;;;;;;;;;;20.86;100.00;98948.94;5012308;28;1894;-57
2023/08/31 01:28:49;;;;;;;;;;;;;;;20.77;100.00;98949.88;5012282;28;852;-57
2023/08/31 01:31:16;;;;;;;;;;;;;;;20.70;100.00;98955.19;5012306;28;892;-57
2023/08/31 01:33:43;;;;;;;;;;;;;;;20.54;100.00;98957.22;5012195;28;924;-57
2023/08/31 01:36:16;;;;;;;;;;;;;;;20.48;100.00;98956.38;5012254;28;887;-57
2023/08/31 01:38:45;;;;;;;;;;;;;;;20.42;100.00;98961.19;5012283;28;895;-57
2023/08/31 01:41:14;;;;;;;;;;;;;;;20.33;100.00;98970.50;5011707;28;853;-57
2023/08/31 01:43:41;;;;;;;;;;;;;;;20.26;100.00;98968.09;5012322;28;1245;-57
2023/08/31 01:46:08;;;;;;;;;;;;;;;20.20;100.00;98967.25;4994437;28;2013;-57
2023/08/31 01:48:41;;;;;;;;;;;;;;;20.18;100.00;98976.19;5012327;28;852;-57
2023/08/31 01:51:08;;;;;;;;;;;;;;;20.18;100.00;98973.38;5012108;28;813;-57
2023/08/31 01:53:35;;;;;;;;;;;;;;;20.19;100.00;98977.72;5012395;28;820;-57
2023/08/31 01:56:02;;;;;;;;;;;;;;;20.15;100.00;98981.97;5012057;28;829;-57
2023/08/31 01:58:28;;;;;;;;;;;;;;;20.09;100.00;98981.91;5011894;28;873;-57
2023/08/31 02:00:54;;;;;;;;;;;;;;;20.05;100.00;98981.31;5011916;28;903;-57
2023/08/31 02:03:21;;;;;;;;;;;;;;;20.03;100.00;98978.22;5012119;28;937;-57
2023/08/31 02:05:48;;;;;;;;;;;;;;;20.02;100.00;98976.69;5012113;28;1890;-57
2023/08/31 02:08:17;;;;;;;;;;;;;;;20.05;100.00;98977.75;5012014;28;809;-57
2023/08/31 02:10:46;;;;;;;;;;;;;;;20.10;100.00;98977.84;5011733;28;892;-57
2023/08/31 02:13:14;;;;;;;;;;;;;;;20.18;100.00;98986.59;5011854;28;816;-57
2023/08/31 02:15:40;;;;;;;;;;;;;;;20.34;100.00;98994.50;5011911;28;825;-57
2023/08/31 02:18:07;;;;;;;;;;;;;;;20.50;100.00;98989.59;5012018;28;860;-57
2023/08/31 02:20:34;;;;;;;;;;;;;;;20.58;100.00;98999.16;5011857;28;833;-57
2023/08/31 02:23:01;;;;;;;;;;;;;;;20.56;100.00;98987.63;5011748;28;879;-57
2023/08/31 02:25:28;;;;;;;;;;;;;;;20.48;100.00;98981.66;5011856;28;888;-57
2023/08/31 02:27:55;;;;;;;;;;;;;;;20.44;100.00;98977.50;5011586;28;1974;-57
2023/08/31 02:30:21;;;;;;;;;;;;;;;20.34;100.00;98983.28;5010405;28;931;-57
2023/08/31 02:32:48;;;;;;;;;;;;;;;20.29;100.00;98971.97;5012056;28;864;-58
2023/08/31 02:35:15;;;;;;;;;;;;;;;20.23;100.00;98973.91;5011658;28;864;-57
2023/08/31 02:37:42;;;;;;;;;;;;;;;20.15;100.00;98979.94;5011619;28;856;-57
2023/08/31 02:40:09;;;;;;;;;;;;;;;20.19;100.00;98985.38;5011848;28;800;-58
2023/08/31 02:42:36;;;;;;;;;;;;;;;20.22;100.00;98989.22;5011883;28;908;-57
2023/08/31 02:45:03;;;;;;;;;;;;;;;20.19;100.00;98990.97;5010061;28;1363;-57
2023/08/31 02:47:31;;;;;;;;;;;;;;;20.09;100.00;98986.75;5011534;28;1906;-58
2023/08/31 02:49:58;;;;;;;;;;;;;;;20.02;100.00;98992.75;5011434;28;885;-58
2023/08/31 02:52:24;;;;;;;;;;;;;;;19.98;100.00;98982.50;5011550;28;805;-57
2023/08/31 02:54:51;;;;;;;;;;;;;;;19.97;100.00;98988.59;5013827;28;832;-57
2023/08/31 02:57:19;;;;;;;;;;;;;;;19.84;100.00;98990.94;5015014;28;895;-57
2023/08/31 02:59:50;;;;;;;;;;;;;;;19.73;100.00;99000.72;5015022;28;844;-57
2023/08/31 03:02:17;;;;;;;;;;;;;;;19.68;100.00;99004.19;5015083;28;872;-57
2023/08/31 03:04:43;;;;;;;;;;;;;;;19.74;100.00;99007.13;5014877;28;891;-57
2023/08/31 03:07:13;;;;;;;;;;;;;;;19.78;100.00;99010.50;5014839;28;1886;-58
2023/08/31 03:09:40;;;;;;;;;;;;;;;19.72;100.00;99004.78;5015123;28;844;-57
2023/08/31 03:12:06;;;;;;;;;;;;;;;19.68;100.00;99007.00;5015047;28;871;-57
2023/08/31 03:14:33;;;;;;;;;;;;;;;19.67;100.00;99002.66;5014739;28;824;-57
2023/08/31 03:17:00;;;;;;;;;;;;;;;19.67;100.00;99008.25;5014631;28;845;-57
2023/08/31 03:19:27;;;;;;;;;;;;;;;19.68;100.00;99009.78;5014731;28;844;-57
2023/08/31 03:21:53;;;;;;;;;;;;;;;19.75;100.00;99012.22;5013288;28;1228;-57
2023/08/31 03:24:20;;;;;;;;;;;;;;;19.82;100.00;99013.84;5013380;28;861;-57
2023/08/31 03:26:47;;;;;;;;;;;;;;;19.77;100.00;99012.50;5014396;28;1910;-57
2023/08/31 03:29:13;;;;;;;;;;;;;;;19.74;100.00;99015.53;5014598;28;985;-58
2023/08/31 03:31:40;;;;;;;;;;;;;;;19.70;100.00;99015.72;5014480;28;816;-57
2023/08/31 03:34:06;;;;;;;;;;;;;;;19.67;100.00;99013.06;5014457;28;884;-57
2023/08/31 03:36:34;;;;;;;;;;;;;;;19.67;100.00;99019.47;5014588;28;880;-57
2023/08/31 03:39:01;;;;;;;;;;;;;;;19.63;100.00;99018.91;5014328;28;816;-57
2023/08/31 03:41:27;;;;;;;;;;;;;;;19.61;100.00;99029.00;5014272;28;1021;-57
2023/08/31 03:43:53;;;;;;;;;;;;;;;19.61;100.00;99015.00;5013976;28;1373;-57
2023/08/31 03:46:20;;;;;;;;;;;;;;;19.65;100.00;99024.00;5014326;28;1918;-57
2023/08/31 03:48:47;;;;;;;;;;;;;;;19.56;100.00;99024.88;5014125;28;850;-57
2023/08/31 03:51:13;;;;;;;;;;;;;;;19.52;100.00;99019.47;5014198;28;848;-57
2023/08/31 03:53:39;;;;;;;;;;;;;;;19.56;100.00;99033.28;5014017;28;896;-57
2023/08/31 03:56:07;;;;;;;;;;;;;;;19.58;100.00;99031.53;5013991;28;848;-57
2023/08/31 03:58:33;;;;;;;;;;;;;;;19.63;100.00;99029.31;5014095;28;856;-57
2023/08/31 04:01:00;;;;;;;;;;;;;;;19.73;100.00;99033.59;5013892;28;882;-57
2023/08/31 04:03:27;;;;;;;;;;;;;;;19.83;100.00;99035.03;5014125;28;808;-57
2023/08/31 04:05:56;;;;;;;;;;;;;;;19.94;100.00;99038.03;5013380;28;1890;-58
2023/08/31 04:08:23;;;;;;;;;;;;;;;20.02;100.00;99046.81;5013740;28;899;-57
2023/08/31 04:10:50;;;;;;;;;;;;;;;20.06;100.00;99044.59;5013720;28;887;-57
2023/08/31 04:13:16;;;;;;;;;;;;;;;20.16;100.00;99039.63;5013781;28;809;-57
2023/08/31 04:15:43;;;;;;;;;;;;;;;20.28;100.00;99040.56;5013794;28;851;-57
2023/08/31 04:18:10;;;;;;;;;;;;;;;20.37;100.00;99048.88;5013688;28;801;-57
2023/08/31 04:20:37;;;;;;;;;;;;;;;20.40;100.00;99054.28;5013526;28;841;-57
2023/08/31 04:23:04;;;;;;;;;;;;;;;20.50;100.00;99049.28;5013512;28;864;-57
2023/08/31 04:25:31;;;;;;;;;;;;;;;20.66;100.00;99050.84;5013365;28;882;-58
2023/08/31 04:27:58;;;;;;;;;;;;;;;20.79;100.00;99047.69;5013378;28;1878;-57
2023/08/31 04:30:25;;;;;;;;;;;;;;;20.85;100.00;99044.94;5013330;28;873;-58
2023/08/31 04:32:52;;;;;;;;;;;;;;;20.88;100.00;99050.34;5013326;28;824;-57
2023/08/31 04:35:18;;;;;;;;;;;;;;;20.98;100.00;99065.78;5013428;28;836;-57
2023/08/31 04:37:46;;;;;;;;;;;;;;;21.09;100.00;99059.53;5013265;28;866;-58
2023/08/31 04:40:13;;;;;;;;;;;;;;;21.08;100.00;99063.63;5013247;28;895;-57
2023/08/31 04:42:40;;;;;;;;;;;;;;;21.04;100.00;99067.88;5013309;28;936;-57
2023/08/31 04:45:07;;;;;;;;;;;;;;;21.03;100.00;99057.91;5012867;28;1263;-57
2023/08/31 04:47:34;;;;;;;;;;;;;;;21.11;100.00;99064.66;5013031;28;1910;-57
2023/08/31 04:50:01;;;;;;;;;;;;;;;21.24;100.00;99065.06;5012907;28;899;-58
2023/08/31 04:52:27;;;;;;;;;;;;;;;21.37;100.00;99064.69;5013041;28;864;-57
2023/08/31 04:54:54;;;;;;;;;;;;;;;21.43;100.00;99061.97;5012765;28;825;-57
2023/08/31 04:57:21;;;;;;;;;;;;;;;21.52;100.00;99064.63;5012949;28;876;-57
2023/08/31 04:59:48;;;;;;;;;;;;;;;21.76;100.00;99059.50;5012835;28;866;-57
2023/08/31 05:02:14;;;;;;;;;;;;;;;22.03;100.00;99057.41;5012756;28;817;-57
2023/08/31 05:04:41;;;;;;;;;;;;;;;22.31;100.00;99054.81;5012839;28;889;-57
2023/08/31 05:07:08;;;;;;;;;;;;;;;22.59;100.00;99052.16;5012644;28;1890;-58
2023/08/31 05:09:35;;;;;;;;;;;;;;;23.02;100.00;99051.34;5012679;28;844;-58
2023/08/31 05:12:05;;;;;;;;;;;;;;;23.52;100.00;99056.38;5012534;28;872;-57
2023/08/31 05:14:32;;;;;;;;;;;;;;;24.16;100.00;99055.91;5012860;28;872;-57
2023/08/31 05:16:58;;;;;;;;;;;;;;;24.61;100.00;99056.59;5011894;28;828;-58
2023/08/31 05:19:25;;;;;;;;;;;;;;;24.91;100.00;99060.88;5012574;28;821;-57
2023/08/31 05:21:52;;;;;;;;;;;;;;;25.05;100.00;99065.47;5012500;28;876;-57
2023/08/31 05:24:18;;;;;;;;;;;;;;;25.14;100.00;99070.81;5012349;28;867;-57
2023/08/31 05:26:46;;;;;;;;;;;;;;;25.17;100.00;99064.09;5012440;28;1918;-57
2023/08/31 05:29:13;;;;;;;;;;;;;;;25.23;100.00;99062.03;5012365;28;824;-57
2023/08/31 05:31:39;;;;;;;;;;;;;;;25.39;100.00;99062.47;5012351;28;828;-57
2023/08/31 05:34:05;;;;;;;;;;;;;;;25.50;100.00;99061.63;5012234;28;899;-57
2023/08/31 05:36:32;;;;;;;;;;;;;;;25.67;100.00;99071.56;5012380;28;844;-57
2023/08/31 05:38:59;;;;;;;;;;;;;;;25.76;100.00;99067.63;5012287;28;967;-56
2023/08/31 05:41:25;;;;;;;;;;;;;;;25.79;100.00;99077.13;5012171;28;941;-57
2023/08/31 05:43:52;;;;;;;;;;;;;;;25.77;100.00;99074.06;5011979;28;1249;-57
2023/08/31 05:46:19;;;;;;;;;;;;;;;25.99;100.00;99073.13;5012151;28;1914;-56
2023/08/31 05:48:45;;;;;;;;;;;;;;;26.09;100.00;99077.16;5012038;28;813;-57
2023/08/31 05:51:12;;;;;;;;;;;;;;;26.22;100.00;99076.53;5012229;28;876;-56
2023/08/31 05:53:39;;;;;;;;;;;;;;;26.20;100.00;99062.94;5012045;28;821;-57
2023/08/31 05:56:06;;;;;;;;;;;;;;;26.38;100.00;99086.94;5012275;28;865;-56
2023/08/31 05:58:34;;;;;;;;;;;;;;;26.66;100.00;99085.94;5012014;28;883;-56
2023/08/31 06:01:02;;;;;;;;;;;;;;;27.06;100.00;99091.91;5012055;28;812;-57
2023/08/31 06:03:29;;;;;;;;;;;;;;;27.58;100.00;99096.38;4994383;28;1223;-56
2023/08/31 06:05:56;;;;;;;;;;;;;;;28.19;100.00;99093.94;5011870;28;1886;-56
2023/08/31 06:08:23;;;;;;;;;;;;;;;28.47;100.00;99099.13;5011896;28;915;-56
2023/08/31 06:10:49;;;;;;;;;;;;;;;28.84;100.00;99097.41;5011925;28;833;-56
2023/08/31 06:13:16;;;;;;;;;;;;;;;28.67;100.00;99097.72;5011893;28;939;-57
2023/08/31 06:15:44;;;;;;;;;;;;;;;28.52;100.00;99103.19;5011899;28;844;-56
2023/08/31 06:18:10;;;;;;;;;;;;;;;29.00;100.00;99100.47;5011796;28;947;-56
2023/08/31 06:20:37;;;;;;;;;;;;;;;29.48;100.00;99095.59;5011828;28;845;-56
2023/08/31 06:23:04;;;;;;;;;;;;;;;29.50;99.62;99105.09;5011968;28;852;-57
2023/08/31 06:25:31;;;;;;;;;;;;;;;29.10;100.00;99105.22;5011768;28;828;-56
2023/08/31 06:27:58;;;;;;;;;;;;;;;28.55;100.00;99107.81;5012779;28;1886;-56
2023/08/31 06:30:25;;;;;;;;;;;;;;;28.20;100.00;99112.50;5015630;28;967;-57
2023/08/31 06:32:52;;;;;;;;;;;;;;;28.26;100.00;99118.84;5015626;28;852;-57
2023/08/31 06:35:19;;;;;;;;;;;;;;;28.48;100.00;99122.59;5015588;28;825;-56
2023/08/31 06:37:46;;;;;;;;;;;;;;;28.72;100.00;99116.03;5015386;28;801;-56
2023/08/31 06:40:13;;;;;;;;;;;;;;;28.70;100.00;99116.56;5015591;28;813;-56
2023/08/31 06:42:40;;;;;;;;;;;;;;;29.01;100.00;99111.28;5015629;28;1072;-57
2023/08/31 06:45:08;;;;;;;;;;;;;;;29.39;97.64;99113.91;5015171;28;1219;-56
2023/08/31 06:47:35;;;;;;;;;;;;;;;29.77;95.89;99121.38;5015299;28;1918;-56
2023/08/31 06:50:03;;;;;;;;;;;;;;;29.69;94.37;99115.56;5015220;28;872;-56
2023/08/31 06:52:30;;;;;;;;;;;;;;;29.49;95.07;99122.75;5015130;28;828;-56
2023/08/31 06:54:57;;;;;;;;;;;;;;;29.60;94.78;99118.91;5015365;28;852;-56
2023/08/31 06:57:23;;;;;;;;;;;;;;;30.17;92.63;99124.84;5015138;28;948;-56
2023/08/31 06:59:50;;;;;;;;;;;;;;;30.46;89.44;99131.34;5014986;28;907;-56
2023/08/31 07:02:16;;;;;;;;;;;;;;;30.97;87.12;99124.31;5015015;28;842;-56
2023/08/31 07:04:43;;;;;;;;;;;;;;;31.96;83.69;99120.31;5015126;28;857;-56
2023/08/31 07:07:13;;;;;;;;;;;;;;;32.84;73.06;99122.88;5015113;28;1890;-56
2023/08/31 07:09:42;;;;;;;;;;;;;;;33.07;69.84;99128.53;5014932;28;855;-56
2023/08/31 07:12:10;;;;;;;;;;;;;;;33.55;65.92;99122.81;5014735;28;931;-56
2023/08/31 07:14:37;;;;;;;;;;;;;;;33.78;65.04;99130.56;5014966;28;844;-56
2023/08/31 07:17:03;;;;;;;;;;;;;;;34.25;62.26;99139.66;5014676;28;899;-56
2023/08/31 07:19:30;;;;;;;;;;;;;;;34.14;61.91;99133.03;5014830;28;820;-56
2023/08/31 07:21:57;;;;;;;;;;;;;;;33.62;61.71;99135.63;5014562;28;833;-56
2023/08/31 07:24:24;;;;;;;;;;;;;;;32.97;63.04;99141.91;5013385;28;2158;-56
2023/08/31 07:26:51;;;;;;;;;;;;;;;32.38;63.62;99145.00;5014499;28;1894;-57
2023/08/31 07:29:17;;;;;;;;;;;;;;;32.18;63.78;99143.81;5014629;28;841;-56
2023/08/31 07:31:44;;;;;;;;;;;;;;;32.11;64.16;99133.91;5014501;28;899;-56
2023/08/31 07:37:15;;;;;;;;;;;;;;;31.96;64.47;99151.75;5011952;28;1047;-56
2023/08/31 07:39:42;;;;;;;;;;;;;;;32.02;61.73;99134.47;5013766;28;858;-57
2023/08/31 07:42:08;;;;;;;;;;;;;;;32.11;59.83;99137.56;5014790;28;1048;-57
2023/08/31 07:44:36;;;;;;;;;;;;;;;32.30;59.61;99144.97;5014293;28;1297;-56
2023/08/31 07:47:02;;;;;;;;;;;;;;;32.40;59.79;99133.75;5014317;28;1922;-56
2023/08/31 07:49:29;;;;;;;;;;;;;;;32.41;58.88;99141.75;5014696;28;820;-57
2023/08/31 07:51:56;;;;;;;;;;;;;;;32.24;58.70;99138.69;5014197;28;861;-56
2023/08/31 07:54:23;;;;;;;;;;;;;;;32.14;58.92;99136.41;5014368;28;871;-57
2023/08/31 07:56:49;;;;;;;;;;;;;;;32.07;57.12;99140.03;5014164;28;841;-57
2023/08/31 07:59:18;;;;;;;;;;;;;;;32.10;55.81;99138.09;5014080;28;856;-57
2023/08/31 08:01:44;;;;;;;;;;;;;;;32.33;56.32;99141.00;5014100;28;903;-57
2023/08/31 08:04:13;;;;;;;;;;;;;;;32.71;54.59;99145.94;5014151;28;868;-57
2023/08/31 08:06:40;;;;;;;;;;;;;;;32.96;53.36;99149.72;5013824;28;1953;-57
2023/08/31 08:09:07;;;;;;;;;;;;;;;33.62;51.22;99137.72;5013803;28;868;-57
2023/08/31 08:11:35;;;;;;;;;;;;;;;34.29;49.41;99142.84;5013985;28;809;-57
2023/08/31 08:14:02;;;;;;;;;;;;;;;34.73;46.34;99148.81;5013503;28;939;-57
2023/08/31 08:16:30;;;;;;;;;;;;;;;34.75;44.12;99146.13;5031652;28;829;-57
2023/08/31 08:18:56;;;;;;;;;;;;;;;35.15;41.91;99150.91;5033397;28;906;-57
2023/08/31 08:21:23;;;;;;;;;;;;;;;34.79;40.43;99151.44;5033264;28;886;-57
2023/08/31 08:23:50;;;;;;;;;;;;;;;34.22;41.80;99155.91;5033310;28;825;-57
2023/08/31 08:26:17;;;;;;;;;;;;;;;34.25;42.16;99145.41;5033148;28;1897;-57
2023/08/31 08:28:45;;;;;;;;;;;;;;;34.48;41.67;99153.78;5033213;28;869;-57
2023/08/31 08:31:12;;;;;;;;;;;;;;;34.01;42.86;99146.84;5033107;28;997;-57
2023/08/31 08:33:40;;;;;;;;;;;;;;;34.24;42.31;99138.88;5033141;28;828;-58
2023/08/31 08:36:06;;;;;;;;;;;;;;;34.51;41.94;99147.66;5033010;28;797;-57
2023/08/31 08:38:33;;;;;;;;;;;;;;;34.80;41.56;99147.22;5015342;28;1192;-57
2023/08/31 08:41:04;;;;;;;;;;;;;;;35.46;41.13;99139.03;5032919;28;1078;-57
2023/08/31 08:43:31;;;;;;;;;;;;;;;36.03;39.26;99130.63;5033177;28;1185;-57
2023/08/31 08:46:02;;;;;;;;;;;;;;;36.06;39.37;99138.84;5032891;28;1922;-57
2023/08/31 08:48:28;;;;;;;;;;;;;;;36.14;39.09;99132.97;5032799;28;817;-57
2023/08/31 08:50:56;;;;;;;;;;;;;;;35.91;38.84;99142.69;5032643;28;943;-57
2023/08/31 08:53:22;;;;;;;;;;;;;;;35.81;39.15;99147.63;5032673;28;852;-57
2023/08/31 08:55:49;;;;;;;;;;;;;;;35.45;39.22;99137.53;5032676;28;837;-57
2023/08/31 08:58:15;;;;;;;;;;;;;;;35.63;38.62;99137.50;5032628;28;830;-57
2023/08/31 09:00:43;;;;;;;;;;;;;;;35.70;38.38;99130.91;5032616;28;809;-57
2023/08/31 09:03:09;;;;;;;;;;;;;;;35.98;38.12;99136.06;5032499;28;851;-57
2023/08/31 09:05:36;;;;;;;;;;;;;;;36.21;36.95;99128.47;5032472;28;876;-57
2023/08/31 09:08:09;;;;;;;;;;;;;;;35.67;37.12;99140.72;5032484;28;1878;-57
2023/08/31 09:10:42;;;;;;;;;;;;;;;35.20;37.75;99134.78;5032363;28;875;-56
2023/08/31 09:13:18;;;;;;;;;;;;;;;34.84;37.58;99138.19;5032671;28;911;-57
2023/08/31 09:15:48;;;;;;;;;;;;;;;35.21;37.31;99135.53;5032331;28;1063;-57
2023/08/31 09:18:28;;;;;;;;;;;;;;;35.37;36.08;99148.34;5032284;28;927;-57
2023/08/31 09:20:58;;;;;;;;;;;;;;;34.66;36.41;99149.66;5032310;28;807;-57
2023/08/31 09:23:25;;;;;;;;;;;;;;;34.30;37.23;99145.16;5032290;28;843;-57
2023/08/31 09:25:53;;;;;;;;;;;;;;;34.11;37.78;99139.16;5032098;28;1889;-57
2023/08/31 09:28:21;;;;;;;;;;;;;;;33.96;38.70;99145.75;5032184;28;800;-57
2023/08/31 09:30:48;;;;;;;;;;;;;;;34.47;36.99;99146.56;5032080;28;895;-57
2023/08/31 09:33:20;;;;;;;;;;;;;;;35.45;35.09;99137.53;5032032;28;855;-57
2023/08/31 09:35:48;;;;;;;;;;;;;;;36.17;33.97;99134.66;5031982;28;892;-57
2023/08/31 09:38:15;;;;;;;;;;;;;;;36.42;33.13;99140.19;5031963;28;836;-57
2023/08/31 09:40:42;;;;;;;;;;;;;;;36.59;32.99;99116.31;5031970;28;820;-57
2023/08/31 09:43:07;;;;;;;;;;;;;;;36.56;33.25;99131.91;5032109;28;1275;-57
2023/08/31 09:45:35;;;;;;;;;;;;;;;35.71;34.29;99135.31;5014377;28;872;-57
2023/08/31 09:48:03;;;;;;;;;;;;;;;34.75;35.54;99133.88;5031828;28;1973;-57
2023/08/31 09:50:33;;;;;;;;;;;;;;;34.38;36.34;99136.50;5014234;28;855;-57
2023/08/31 09:53:03;;;;;;;;;;;;;;;34.92;35.61;99141.75;5031791;28;884;-57
2023/08/31 09:55:31;;;;;;;;;;;;;;;35.08;35.13;99133.72;5031974;28;875;-57
2023/08/31 09:57:58;;;;;;;;;;;;;;;34.94;35.35;99134.06;5031767;28;800;-57
2023/08/31 10:00:29;;;;;;;;;;;;;;;34.84;34.82;99138.19;5031819;28;824;-57
2023/08/31 10:03:00;;;;;;;;;;;;;;;34.87;34.17;99142.78;5034195;28;866;-57
2023/08/31 10:05:26;;;;;;;;;;;;;;;34.84;34.86;99132.47;5038285;28;833;-58
2023/08/31 10:07:52;;;;;;;;;;;;;;;34.46;36.01;99133.53;5038254;28;1881;-58
2023/08/31 10:10:19;;;;;;;;;;;;;;;33.90;37.12;99125.91;5038243;28;824;-57
2023/08/31 10:43:47;;;;;;;;;;;;;;;32.24;40.45;99145.19;5332954;23;1683;-58
2023/08/31 10:46:17;;;;;;;;;;;;;;;32.12;40.21;99144.78;5018183;28;2007;-58
2023/08/31 10:48:53;;;;;;;;;;;;;;;31.94;40.43;99154.41;5030124;28;842;-58
2023/08/31 10:51:23;;;;;;;;;;;;;;;31.69;40.89;99154.94;5037884;28;930;-58
2023/08/31 10:53:49;;;;;;;;;;;;;;;31.57;41.51;99150.13;5037962;28;930;-58
2023/08/31 10:56:16;;;;;;;;;;;;;;;31.55;41.96;99153.56;5037891;28;880;-58
2023/08/31 10:58:54;;;;;;;;;;;;;;;31.53;42.12;99162.69;5037860;28;1183;-58
2023/08/31 11:01:42;;;;;;;;;;;;;;;31.55;42.64;99159.25;5037922;28;875;-58
2023/08/31 11:04:10;;;;;;;;;;;;;;;31.58;42.46;99166.72;5027401;28;1212;-58
2023/08/31 11:06:37;;;;;;;;;;;;;;;31.55;42.51;99162.13;5038021;28;1954;-58
2023/08/31 11:09:05;;;;;;;;;;;;;;;31.44;42.97;99166.06;5037797;28;859;-58
2023/08/31 11:11:40;;;;;;;;;;;;;;;31.23;42.81;99173.94;5037719;28;899;-58
2023/08/31 11:14:09;;;;;;;;;;;;;;;31.04;43.11;99174.19;5035686;28;872;-58
2023/08/31 11:16:38;;;;;;;;;;;;;;;31.05;43.33;99173.66;5034463;28;887;-58
2023/08/31 11:19:05;;;;;;;;;;;;;;;31.18;42.79;99177.72;5034855;28;832;-58
2023/08/31 11:21:32;;;;;;;;;;;;;;;31.32;42.02;99176.25;5034800;28;839;-59
2023/08/31 11:23:58;;;;;;;;;;;;;;;31.49;41.98;99168.00;5035048;28;843;-58
2023/08/31 11:26:29;;;;;;;;;;;;;;;31.59;42.41;99162.50;5034473;28;1890;-58
2023/08/31 11:28:56;;;;;;;;;;;;;;;31.49;42.78;99148.03;5016675;28;1173;-58
2023/08/31 11:31:24;;;;;;;;;;;;;;;31.37;43.23;99148.88;5034559;28;883;-58
2023/08/31 11:33:50;;;;;;;;;;;;;;;31.34;43.71;99148.69;5034450;28;828;-58
2023/08/31 11:36:17;;;;;;;;;;;;;;;31.31;43.70;99146.94;5034314;28;809;-58
2023/08/31 11:38:44;;;;;;;;;;;;;;;31.37;43.48;99152.50;5034250;28;891;-58
2023/08/31 11:41:11;;;;;;;;;;;;;;;31.36;43.57;99150.97;5034167;28;961;-58
2023/08/31 11:43:38;;;;;;;;;;;;;;;31.52;43.61;99155.44;5034150;28;1201;-58
2023/08/31 11:46:06;;;;;;;;;;;;;;;31.78;43.54;99155.72;5033996;28;1976;-58
2023/08/31 11:48:32;;;;;;;;;;;;;;;32.03;42.70;99156.00;5034019;28;928;-58
2023/08/31 11:50:59;;;;;;;;;;;;;;;32.15;42.79;99160.03;5034316;28;851;-58
2023/08/31 11:53:26;;;;;;;;;;;;;;;31.94;42.38;99154.41;5033944;28;1022;-58
2023/08/31 11:55:53;;;;;;;;;;;;;;;31.66;42.90;99163.88;5033913;28;828;-58
2023/08/31 11:58:20;;;;;;;;;;;;;;;31.54;42.95;99157.75;5033811;28;892;-58
2023/08/31 12:00:56;;;;;;;;;;;;;;;31.52;43.08;99160.41;5033905;28;983;-58
2023/08/31 12:03:22;;;;;;;;;;;;;;;31.66;42.70;99167.47;5033769;28;832;-58
2023/08/31 12:05:51;;;;;;;;;;;;;;;32.04;42.46;99157.53;5033744;28;867;-58
2023/08/31 12:08:27;;;;;;;;;;;;;;;32.94;41.27;99155.25;5033676;28;2007;-58
2023/08/31 12:10:55;;;;;;;;;;;;;;;34.66;37.88;99143.91;5016098;28;848;-58
2023/08/31 12:13:25;;;;;;;;;;;;;;;35.98;35.70;99141.81;5033714;28;867;-58
2023/08/31 12:15:54;;;;;;;;;;;;;;;36.17;34.53;99126.03;5033498;28;856;-58
2023/08/31 12:18:21;;;;;;;;;;;;;;;36.13;34.59;99140.84;5033527;28;891;-58
2023/08/31 12:20:50;;;;;;;;;;;;;;;35.83;35.24;99124.78;5033377;28;863;-58
2023/08/31 12:23:21;;;;;;;;;;;;;;;35.13;36.38;99127.75;5033427;28;824;-58
2023/08/31 12:25:48;;;;;;;;;;;;;;;34.71;36.96;99125.69;5032891;28;850;-58
2023/08/31 12:28:15;;;;;;;;;;;;;;;34.22;37.64;99121.50;5033229;28;1874;-58
2023/08/31 12:30:43;;;;;;;;;;;;;;;34.46;37.42;99119.19;5033300;28;867;-58
2023/08/31 12:33:10;;;;;;;;;;;;;;;34.35;37.92;99135.56;5033194;28;1041;-58
2023/08/31 12:35:38;;;;;;;;;;;;;;;33.94;38.29;99125.50;5033155;28;828;-59
2023/08/31 12:38:04;;;;;;;;;;;;;;;33.44;39.37;99134.72;5033156;28;835;-58
2023/08/31 12:40:30;;;;;;;;;;;;;;;33.23;39.77;99140.72;5032974;28;882;-58
2023/08/31 12:42:56;;;;;;;;;;;;;;;33.96;38.89;99128.53;5033065;28;1373;-58
2023/08/31 12:45:22;;;;;;;;;;;;;;;33.87;38.40;99126.31;5033027;28;910;-58
2023/08/31 12:47:49;;;;;;;;;;;;;;;33.68;38.96;99118.97;5015208;28;1910;-58
2023/08/31 12:50:15;;;;;;;;;;;;;;;33.48;39.39;99120.00;5032851;28;808;-58
2023/08/31 12:52:45;;;;;;;;;;;;;;;33.25;39.76;99122.97;5032871;28;954;-58
2023/08/31 12:55:14;;;;;;;;;;;;;;;33.05;40.09;99128.34;5032931;28;881;-58
2023/08/31 12:57:44;;;;;;;;;;;;;;;33.21;39.60;99122.59;5032709;28;828;-58
2023/08/31 13:00:12;;;;;;;;;;;;;;;33.19;39.90;99117.44;5014982;28;1173;-58
2023/08/31 13:02:38;;;;;;;;;;;;;;;33.40;39.54;99102.09;5032629;28;870;-58
2023/08/31 13:05:05;;;;;;;;;;;;;;;34.44;38.05;99111.19;5032600;28;800;-58
2023/08/31 13:07:32;;;;;;;;;;;;;;;35.17;37.08;99110.13;5032400;28;1981;-58
2023/08/31 13:10:03;;;;;;;;;;;;;;;34.33;37.05;99118.19;5032460;28;891;-58
2023/08/31 13:12:32;;;;;;;;;;;;;;;33.28;38.70;99116.06;5032584;28;887;-58
2023/08/31 13:15:00;;;;;;;;;;;;;;;32.51;40.97;99122.69;5014677;28;1336;-58
2023/08/31 13:17:27;;;;;;;;;;;;;;;32.04;41.57;99120.38;5032442;28;840;-58
2023/08/31 13:19:53;;;;;;;;;;;;;;;31.84;42.70;99124.91;5032337;28;836;-58
2023/08/31 13:22:21;;;;;;;;;;;;;;;31.73;42.95;99126.78;5014900;28;950;-58
2023/08/31 13:24:48;;;;;;;;;;;;;;;32.06;42.32;99117.72;5032301;28;859;-58
2023/08/31 13:27:14;;;;;;;;;;;;;;;32.35;41.17;99129.75;5032157;28;1953;-58
2023/08/31 13:29:41;;;;;;;;;;;;;;;33.14;40.42;99130.63;5032185;28;804;-58
2023/08/31 13:32:07;;;;;;;;;;;;;;;34.10;38.73;99129.78;5032253;28;821;-58
2023/08/31 13:34:35;;;;;;;;;;;;;;;35.05;37.04;99129.94;5032295;28;800;-58
2023/08/31 13:37:01;;;;;;;;;;;;;;;35.55;35.85;99134.75;5031622;28;923;-58